Time;durP1;ratioP1;P1;durP2;ratioP2;P2;SDS_P1;SDS_P2;PMS_P1;PMS_P2;Temp;Humidity;BMP_temperature;BMP_pressure;BME280_temperature;BME280_humidity;BME280_pressure;Samples;Min_cycle;Max_cycle;Signal;HPM_P1;HPM_P2
2023/07/21 07:23:03;;;;;;;17.33;15.70;;;;;;;-145.79;66.12;76881.31;5321259;27;1274984;-71
2023/07/21 07:25:35;;;;;;;19.70;16.55;;;;;;;-145.79;66.23;76879.19;5331245;27;20035;-71
2023/07/21 07:28:08;;;;;;;17.55;15.75;;;;;;;-145.79;66.07;76866.47;5335692;28;20031;-72
2023/07/21 07:30:39;;;;;;;17.15;15.55;;;;;;;-145.79;66.08;76853.75;5339112;28;20482;-73
2023/07/21 07:33:14;;;;;;;20.30;18.40;;;;;;;-145.79;65.74;76843.16;5336619;28;20114;-72
2023/07/21 07:35:49;;;;;;;20.38;18.55;;;;;;;-145.79;65.04;76826.22;5332457;27;20030;-73
2023/07/21 07:38:27;;;;;;;22.60;20.45;;;;;;;-145.79;63.95;76824.09;5329471;28;20042;-72
2023/07/21 07:41:05;;;;;;;18.17;16.58;;;;;;;-145.79;63.34;76821.97;5333253;28;20069;-73
2023/07/21 07:43:36;;;;;;;13.65;12.43;;;;;;;-145.79;61.59;76781.69;5342773;27;20024;-74
2023/07/21 07:46:08;;;;;;;15.75;14.27;;;;;;;-145.79;60.88;76777.47;5333357;28;20030;-72
2023/07/21 07:48:39;;;;;;;15.80;14.25;;;;;;;-145.79;60.43;76773.22;5337331;28;20019;-73
2023/07/21 07:51:11;;;;;;;15.25;13.80;;;;;;;-145.79;59.82;76756.28;5342367;27;20027;-72
2023/07/21 07:53:42;;;;;;;15.65;14.15;;;;;;;-145.79;59.05;76766.88;5334952;27;20020;-71
2023/07/21 07:56:15;;;;;;;14.32;12.80;;;;;;;-145.79;59.63;76749.91;5338511;28;20018;-73
2023/07/21 07:58:47;;;;;;;15.80;14.18;;;;;;;-145.79;59.48;76754.16;5334331;27;20027;-73
2023/07/21 08:01:18;;;;;;;15.48;13.63;;;;;;;-145.79;59.63;76745.69;5334034;27;20027;-73
2023/07/21 08:03:50;;;;;;;12.88;11.57;;;;;;;-145.79;59.20;76720.25;5334381;27;20026;-73
2023/07/21 08:06:22;;;;;;;12.35;11.15;;;;;;;-145.79;58.86;76694.81;5332339;27;20111;-73
2023/07/21 08:08:53;;;;;;;18.40;16.80;;;;;;;-145.79;59.24;76707.53;5342079;27;20031;-72
2023/07/21 08:11:24;;;;;;;19.23;17.52;;;;;;;-145.79;58.26;76720.25;5331017;27;20038;-75
2023/07/21 08:13:56;;;;;;;14.85;13.50;;;;;;;-145.79;58.40;76718.13;5328891;28;20422;-73
2023/07/21 08:16:27;;;;;;;13.73;12.43;;;;;;;-145.79;57.38;76720.25;5338092;28;20031;-73
2023/07/21 08:18:58;;;;;;;14.45;11.35;;;;;;;-145.79;57.33;76699.06;5329504;28;20032;-73
2023/07/21 08:21:31;;;;;;;14.05;12.75;;;;;;;-145.79;57.54;76707.53;5328548;28;20048;-73
2023/07/21 08:24:02;;;;;;;14.35;12.93;;;;;;;-145.79;56.80;76707.53;5329373;28;20036;-72
2023/07/21 08:26:34;;;;;;;12.90;11.68;;;;;;;-145.79;56.81;76682.09;5330452;28;20035;-72
2023/07/21 08:29:07;;;;;;;15.48;12.00;;;;;;;-145.79;55.87;76665.16;5333576;27;20031;-72
2023/07/21 08:31:38;;;;;;;11.30;10.30;;;;;;;-145.79;55.05;76688.44;5332953;27;20024;-73
2023/07/21 08:34:10;;;;;;;14.52;13.02;;;;;;;-145.79;55.25;76694.81;5323118;28;20385;-73
2023/07/21 08:36:41;;;;;;;18.27;16.45;;;;;;;-145.79;55.74;76692.69;5315944;28;20089;-72
2023/07/21 08:39:12;;;;;;;18.60;16.77;;;;;;;-145.79;55.50;76701.16;5318639;28;20378;-73
2023/07/21 08:41:50;;;;;;;15.43;13.50;;;;;;;-145.79;55.75;76675.75;5317679;28;20563;-73
2023/07/21 08:44:22;;;;;;;13.60;12.30;;;;;;;-145.79;55.29;76677.84;5315275;28;20472;-74
2023/07/21 08:46:54;;;;;;;14.40;13.02;;;;;;;-145.79;55.23;76673.63;5322826;28;20027;-76
2023/07/21 08:49:26;;;;;;;13.10;11.85;;;;;;;-145.79;54.68;76682.09;5314564;28;20023;-75
2023/07/21 08:51:57;;;;;;;12.70;11.60;;;;;;;-145.79;54.69;76656.66;5318963;28;20026;-75
2023/07/21 08:54:28;;;;;;;14.98;13.52;;;;;;;-145.79;54.02;76663.03;5318969;28;20429;-75
2023/07/21 08:57:00;;;;;;;13.10;11.80;;;;;;;-145.79;54.54;76648.19;5316891;27;20114;-76
2023/07/21 08:59:31;;;;;;;17.45;15.73;;;;;;;-145.79;54.22;76660.91;5319789;28;20157;-74
2023/07/21 09:02:03;;;;;;;14.43;13.00;;;;;;;-145.79;54.52;76648.19;5317726;28;20027;-74
2023/07/21 09:04:34;;;;;;;12.88;11.57;;;;;;;-145.79;54.08;76652.44;5326008;28;20069;-72
2023/07/21 09:07:07;;;;;;;12.20;11.02;;;;;;;-145.79;53.87;76658.78;5311747;28;20090;-72
2023/07/21 09:09:38;;;;;;;12.60;11.30;;;;;;;-145.79;53.41;76663.03;5319278;28;20155;-73
2023/07/21 09:12:11;;;;;;;14.05;9.75;;;;;;;-145.79;54.15;76633.34;5318145;28;20228;-72
2023/07/21 09:14:44;;;;;;;19.13;17.27;;;;;;;-145.79;53.33;76669.38;5321996;28;20020;-73
2023/07/21 09:17:16;;;;;;;14.93;12.43;;;;;;;-145.79;54.00;76654.53;5313950;28;20028;-76
2023/07/21 09:19:47;;;;;;;12.82;11.57;;;;;;;-145.79;54.25;76639.72;5325060;28;20056;-75
2023/07/21 09:22:24;;;;;;;14.00;12.60;;;;;;;-145.79;54.32;76639.72;5323837;28;20047;-76
2023/07/21 09:24:55;;;;;;;16.50;14.80;;;;;;;-145.79;53.79;76627.00;5317750;28;20384;-75
2023/07/21 09:27:27;;;;;;;15.68;14.18;;;;;;;-145.79;53.86;76595.22;5325895;28;20115;-74
2023/07/21 09:30:00;;;;;;;13.60;12.38;;;;;;;-145.79;53.00;76563.41;5313291;28;20604;-74
2023/07/21 09:32:40;;;;;;;12.93;11.65;;;;;;;-145.79;52.34;76521.03;5317165;28;20027;-74
2023/07/21 09:35:13;;;;;;;16.90;15.20;;;;;;;-145.79;51.99;76525.28;5326687;28;20479;-73
2023/07/21 09:37:49;;;;;;;15.20;13.70;;;;;;;-145.79;51.51;76504.09;5313843;28;20031;-72
2023/07/21 09:40:30;;;;;;;20.17;18.17;;;;;;;-145.79;51.82;76506.19;5317915;28;20015;-73
2023/07/21 09:43:02;;;;;;;22.33;20.20;;;;;;;-145.79;50.86;76550.69;5322654;28;20066;-73
2023/07/21 09:45:34;;;;;;;14.13;12.82;;;;;;;-145.79;49.87;76552.81;5311960;28;20062;-74
2023/07/21 09:48:06;;;;;;;19.55;17.63;;;;;;;-145.79;51.35;76538.00;5317022;28;20037;-73
2023/07/21 09:50:39;;;;;;;18.35;16.67;;;;;;;-145.79;51.36;76521.03;5317569;28;20098;-74
2023/07/21 09:53:19;;;;;;;18.13;16.23;;;;;;;-145.79;50.80;76548.59;5313308;28;20104;-74
2023/07/21 09:55:55;;;;;;;18.83;17.08;;;;;;;-145.79;50.93;76535.88;5313414;28;20032;-75
2023/07/21 09:58:28;;;;;;;15.82;14.48;;;;;;;-145.79;50.88;76516.78;5317807;28;20032;-73
2023/07/21 10:01:04;;;;;;;14.50;13.07;;;;;;;-145.79;49.78;76521.03;5313813;28;20028;-73
2023/07/21 10:03:36;;;;;;;23.20;21.25;;;;;;;-145.79;49.22;76550.69;5317301;27;20035;-73
2023/07/21 10:06:08;;;;;;;13.93;12.63;;;;;;;-145.79;49.98;76546.47;5315428;28;20030;-75
2023/07/21 10:08:41;;;;;;;15.60;14.20;;;;;;;-145.79;50.44;76552.81;5312904;28;20467;-74
2023/07/21 10:11:15;;;;;;;11.95;10.80;;;;;;;-145.79;50.24;76525.28;5318918;28;20054;-73
2023/07/21 10:13:47;;;;;;;12.07;10.88;;;;;;;-145.79;50.00;76527.38;5311527;28;20031;-73
2023/07/21 10:16:21;;;;;;;14.25;12.85;;;;;;;-145.79;50.14;76550.69;5322352;28;20060;-73
2023/07/21 10:19:22;;;;;;;14.15;12.75;;;;;;;-145.79;51.82;76542.22;5312657;28;20036;-71
2023/07/21 10:21:54;;;;;;;14.25;12.85;;;;;;;-145.79;53.43;76576.13;5304849;28;20047;-72
2023/07/21 10:24:28;;;;;;;13.77;12.30;;;;;;;-145.79;55.25;76586.72;5315761;28;20082;-73
2023/07/21 10:27:07;;;;;;;16.23;14.63;;;;;;;-145.79;58.29;76584.59;5311800;28;20058;-73
2023/07/21 10:29:38;;;;;;;18.75;16.98;;;;;;;-145.79;60.88;76618.53;5315064;28;20024;-72
2023/07/21 10:32:10;;;;;;;22.02;19.77;;;;;;;-145.79;63.86;76631.22;5317306;28;20455;-71
2023/07/21 10:34:42;;;;;;;21.00;19.10;;;;;;;-145.79;63.73;76675.75;5313422;28;20166;-72
2023/07/21 10:37:14;;;;;;;21.67;19.58;;;;;;;-145.79;64.69;76663.03;5316850;28;20020;-72
2023/07/21 10:39:54;;;;;;;22.85;20.08;;;;;;;-145.79;65.21;76682.09;5314464;28;20386;-72
2023/07/21 10:42:26;;;;;;;23.50;21.02;;;;;;;-145.79;63.44;76771.09;5313113;28;20498;-72
2023/07/21 10:45:07;;;;;;;10.90;9.75;;;;;;;-145.79;61.07;76688.44;5316211;28;20036;-71
2023/07/21 10:47:38;;;;;;;10.85;8.05;;;;;;;-145.79;59.64;76747.78;5312225;28;20031;-69
2023/07/21 10:50:10;;;;;;;10.13;9.13;;;;;;;-145.79;62.17;76771.09;5315695;28;20023;-68
2023/07/21 10:52:41;;;;;;;13.35;12.23;;;;;;;-145.79;65.09;76771.09;5316505;28;20478;-69
2023/07/21 10:55:18;;;;;;;17.15;15.65;;;;;;;-145.79;66.88;76754.16;5312614;28;20024;-69
2023/07/21 10:57:50;;;;;;;20.88;18.95;;;;;;;-145.79;68.33;76769.00;5315289;28;20027;-70
2023/07/21 11:00:21;;;;;;;22.42;20.52;;;;;;;-145.79;69.19;76771.09;5316006;28;20019;-69
2023/07/21 11:02:54;;;;;;;18.65;16.92;;;;;;;-145.79;67.82;76762.63;5315765;28;20054;-70
2023/07/21 11:05:26;;;;;;;11.95;10.88;;;;;;;-145.79;66.33;76783.81;5308716;28;20027;-68
2023/07/21 11:07:57;;;;;;;9.50;8.70;;;;;;;-145.79;66.94;76779.59;5323242;28;20497;-71
2023/07/21 11:10:33;;;;;;;9.30;8.52;;;;;;;-145.79;67.01;76796.53;5313958;28;20466;-70
2023/07/21 11:13:04;;;;;;;9.85;8.88;;;;;;;-145.79;67.98;76785.94;5317959;28;20106;-72
2023/07/21 11:15:37;;;;;;;8.52;7.82;;;;;;;-145.79;66.66;76794.41;5323692;28;20227;-71
2023/07/21 11:18:09;;;;;;;9.77;8.98;;;;;;;-145.79;68.95;76819.84;5315744;28;20053;-72
2023/07/21 11:20:41;;;;;;;10.30;9.50;;;;;;;-145.79;70.06;76836.81;5314816;28;20035;-72
2023/07/21 11:23:12;;;;;;;9.40;8.60;;;;;;;-145.79;68.90;76860.13;5314960;28;20042;-72
2023/07/21 11:26:08;;;;;;;10.15;9.20;;;;;;;-145.79;70.37;76834.69;5312307;28;20161;-72
2023/07/21 11:28:41;;;;;;;9.45;8.65;;;;;;;-145.79;70.76;76879.19;5317782;28;20032;-72
2023/07/21 11:31:15;;;;;;;9.48;8.68;;;;;;;-145.79;69.47;76889.78;5321526;28;20028;-73
2023/07/21 11:33:48;;;;;;;9.80;8.98;;;;;;;-145.79;71.03;76858.00;5322127;28;20062;-72
2023/07/21 11:36:22;;;;;;;8.15;7.55;;;;;;;-145.79;70.75;76843.16;5316581;28;20348;-72
2023/07/21 11:39:04;;;;;;;8.85;7.97;;;;;;;-145.79;70.92;76802.91;5315088;28;20114;-72
2023/07/21 11:41:39;;;;;;;10.98;10.07;;;;;;;-145.79;71.15;76824.09;5314750;28;20073;-73
2023/07/21 11:44:16;;;;;;;10.43;9.52;;;;;;;-145.79;70.94;76809.25;5318300;28;20036;-73
2023/07/21 11:46:54;;;;;;;8.43;7.72;;;;;;;-145.79;69.46;76817.72;5316478;28;20363;-73
2023/07/21 11:49:28;;;;;;;8.07;7.47;;;;;;;-145.79;71.28;76788.06;5316099;28;20030;-72
2023/07/21 11:52:00;;;;;;;8.70;8.00;;;;;;;-145.79;72.19;76771.09;5319914;28;20058;-74
2023/07/21 11:54:42;;;;;;;6.07;5.68;;;;;;;-145.79;68.77;76726.59;5315849;28;20055;-73
2023/07/21 11:57:13;;;;;;;6.40;5.80;;;;;;;-145.79;67.25;76716.00;5323059;28;20020;-73
2023/07/21 11:59:45;;;;;;;5.82;5.32;;;;;;;-145.79;65.09;76696.94;5315186;28;20093;-73
2023/07/21 12:02:16;;;;;;;6.47;5.88;;;;;;;-145.79;64.84;76669.38;5312339;28;20036;-72
2023/07/21 12:04:48;;;;;;;6.85;6.20;;;;;;;-145.79;64.67;76665.16;5310723;28;20032;-73
2023/07/21 12:07:19;;;;;;;8.43;7.63;;;;;;;-145.79;65.23;76682.09;5311096;28;20475;-74
2023/07/21 12:09:51;;;;;;;9.57;8.77;;;;;;;-145.79;64.44;76660.91;5321620;28;20035;-74
2023/07/21 12:12:22;;;;;;;10.30;9.50;;;;;;;-145.79;64.58;76660.91;5325169;28;20102;-74
2023/07/21 12:14:54;;;;;;;12.57;11.57;;;;;;;-145.79;65.07;76665.16;5315527;28;20020;-73
2023/07/21 12:17:25;;;;;;;11.27;10.25;;;;;;;-145.79;63.78;76650.31;5324306;28;20459;-74
2023/07/21 12:19:56;;;;;;;12.27;11.27;;;;;;;-145.79;64.19;76667.25;5321328;28;20035;-75
2023/07/21 12:22:28;;;;;;;14.50;13.30;;;;;;;-145.79;65.09;76677.84;5317459;28;20051;-74
2023/07/21 12:24:59;;;;;;;13.10;12.00;;;;;;;-145.79;65.88;76669.38;5315063;28;20082;-75
2023/07/21 12:27:30;;;;;;;14.20;13.00;;;;;;;-145.79;66.50;76686.34;5316735;28;20081;-74
2023/07/21 12:30:06;;;;;;;13.27;12.18;;;;;;;-145.79;65.49;76677.84;5326150;28;20409;-74
2023/07/21 12:32:38;;;;;;;22.85;20.90;;;;;;;-145.79;67.40;76728.72;5316698;28;20351;-74
2023/07/21 12:35:09;;;;;;;17.73;16.23;;;;;;;-145.79;67.77;76730.84;5318274;28;20031;-76
2023/07/21 12:37:40;;;;;;;15.63;14.32;;;;;;;-145.79;68.37;76728.72;5326821;28;20398;-74
2023/07/21 12:40:12;;;;;;;15.95;14.65;;;;;;;-145.79;68.76;76749.91;5321883;28;20032;-74
2023/07/21 12:42:43;;;;;;;14.27;12.82;;;;;;;-145.79;68.42;76716.00;5316985;28;20028;-73
2023/07/21 12:45:14;;;;;;;14.85;13.63;;;;;;;-145.79;67.88;76688.44;5314823;28;20031;-72
2023/07/21 12:47:46;;;;;;;14.65;13.30;;;;;;;-145.79;68.59;76703.28;5319639;28;20027;-73
2023/07/21 12:50:17;;;;;;;15.75;14.45;;;;;;;-145.79;68.26;76724.47;5318426;28;20488;-73
2023/07/21 12:52:48;;;;;;;14.95;13.55;;;;;;;-145.79;67.92;76741.44;5318518;28;20035;-71
2023/07/21 12:55:20;;;;;;;13.57;12.38;;;;;;;-145.79;68.36;76735.06;5318458;28;20073;-73
2023/07/21 12:57:52;;;;;;;14.32;13.02;;;;;;;-145.79;67.92;76718.13;5318509;28;20027;-71
2023/07/21 13:00:25;;;;;;;10.98;10.15;;;;;;;-145.79;65.85;76694.81;5314539;28;20024;-72
2023/07/21 13:02:56;;;;;;;9.90;9.07;;;;;;;-145.79;64.43;76667.25;5313766;28;20058;-71
2023/07/21 13:05:28;;;;;;;10.73;9.82;;;;;;;-145.79;63.76;76652.44;5318350;28;20032;-69
2023/07/21 13:07:59;;;;;;;13.52;12.20;;;;;;;-145.79;66.18;76633.34;5324416;28;20475;-71
2023/07/21 13:10:32;;;;;;;11.27;10.38;;;;;;;-145.79;64.30;76627.00;5314477;28;20062;-70
2023/07/21 13:13:04;;;;;;;10.30;7.95;;;;;;;-145.79;63.05;76582.50;5322367;28;20035;-71
2023/07/21 13:15:35;;;;;;;9.88;9.05;;;;;;;-145.79;61.34;76631.22;5313296;28;20391;-73
2023/07/21 13:18:07;;;;;;;7.53;6.88;;;;;;;-145.79;62.84;76580.38;5314282;28;20036;-72
2023/07/21 13:20:38;;;;;;;8.93;8.13;;;;;;;-145.79;61.86;76588.84;5325897;28;20035;-74
2023/07/21 13:23:10;;;;;;;7.10;6.50;;;;;;;-145.79;59.07;76612.16;5317791;28;20126;-72
2023/07/21 13:25:41;;;;;;;6.40;5.80;;;;;;;-145.79;59.62;76605.81;5317166;28;20035;-73
2023/07/21 13:28:12;;;;;;;23.38;21.27;;;;;;;-145.79;58.43;76612.16;5317745;28;20073;-72
2023/07/21 13:30:44;;;;;;;7.10;6.22;;;;;;;-145.79;56.94;76627.00;5319245;28;20059;-69
2023/07/21 13:33:15;;;;;;;5.65;5.15;;;;;;;-145.79;58.13;76639.72;5317754;28;20059;-73
2023/07/21 13:35:49;;;;;;;4.40;3.97;;;;;;;-145.79;58.90;76639.72;5316984;28;20111;-72
2023/07/21 13:38:21;;;;;;;4.30;3.90;;;;;;;-145.79;58.61;76646.06;5318024;28;20494;-72
2023/07/21 13:40:52;;;;;;;4.20;3.47;;;;;;;-145.79;55.89;76682.09;5314514;28;20040;-73
2023/07/21 13:43:24;;;;;;;4.50;4.10;;;;;;;-145.79;56.20;76673.63;5319713;28;20026;-74
2023/07/21 13:45:56;;;;;;;4.38;3.92;;;;;;;-145.79;57.63;76671.50;5314859;27;20034;-74
2023/07/21 13:48:27;;;;;;;4.85;4.38;;;;;;;-145.79;58.49;76688.44;5313683;28;20479;-73
2023/07/21 13:51:00;;;;;;;6.07;4.35;;;;;;;-145.79;59.85;76690.56;5320621;28;20023;-73
2023/07/21 13:53:33;;;;;;;6.65;4.82;;;;;;;-145.79;58.51;76694.81;5319219;28;20024;-73
2023/07/21 13:56:04;;;;;;;7.55;4.25;;;;;;;-145.79;58.06;76660.91;5316955;28;20024;-72
2023/07/21 13:58:36;;;;;;;4.40;3.97;;;;;;;-145.79;57.20;76669.38;5316227;28;20399;-75
2023/07/21 14:01:09;;;;;;;7.25;6.55;;;;;;;-145.79;58.29;76650.31;5315085;28;20032;-74
2023/07/21 14:03:45;;;;;;;22.00;19.95;;;;;;;-145.79;57.36;76624.88;5324463;28;20537;-74
2023/07/21 14:06:16;;;;;;;28.48;25.52;;;;;;;-145.79;57.09;76618.53;5323838;28;20043;-74
2023/07/21 14:08:48;;;;;;;14.60;13.13;;;;;;;-145.79;54.94;76631.22;5316576;28;20062;-75
2023/07/21 14:11:19;;;;;;;5.38;4.88;;;;;;;-145.79;55.75;76584.59;5315425;28;20027;-74
2023/07/21 14:13:52;;;;;;;6.63;5.25;;;;;;;-145.79;55.52;76586.72;5312917;28;20043;-74
2023/07/21 14:16:25;;;;;;;6.18;4.47;;;;;;;-145.79;54.32;76603.69;5312937;28;20020;-75
2023/07/21 14:18:57;;;;;;;5.95;4.18;;;;;;;-145.79;55.01;76557.06;5312232;28;20396;-74
2023/07/21 14:21:30;;;;;;;9.02;4.70;;;;;;;-145.79;53.58;76561.28;5321130;28;20048;-75
2023/07/21 14:24:04;;;;;;;6.93;4.82;;;;;;;-145.79;53.79;76576.13;5317308;28;20035;-74
2023/07/21 14:26:35;;;;;;;7.22;4.47;;;;;;;-145.79;53.96;76552.81;5315325;28;20547;-71
2023/07/21 14:29:07;;;;;;;5.63;4.95;;;;;;;-145.79;54.03;76557.06;5324415;28;20027;-72
2023/07/21 14:31:38;;;;;;;7.20;4.72;;;;;;;-145.79;53.09;76554.94;5314004;28;20022;-72
2023/07/21 14:34:09;;;;;;;6.32;4.95;;;;;;;-145.79;53.10;76499.84;5317574;28;20118;-72
2023/07/21 14:36:42;;;;;;;7.28;5.07;;;;;;;-145.79;50.14;76512.56;5323283;28;20019;-71
2023/07/21 14:39:13;;;;;;;7.93;4.85;;;;;;;-145.79;48.68;76567.66;5316935;28;20058;-71
2023/07/21 14:41:45;;;;;;;9.43;5.57;;;;;;;-145.79;48.93;76567.66;5323332;28;20186;-73
2023/07/21 14:44:16;;;;;;;8.02;5.57;;;;;;;-145.79;47.99;76542.22;5320676;28;20047;-73
2023/07/21 14:46:47;;;;;;;7.45;6.35;;;;;;;-145.79;47.66;76508.31;5320093;28;20089;-73
2023/07/21 14:49:20;;;;;;;7.32;6.00;;;;;;;-145.79;46.12;76516.78;5324695;28;20104;-74
2023/07/21 14:51:52;;;;;;;7.20;6.43;;;;;;;-145.79;47.04;76478.66;5315987;28;20482;-73
2023/07/21 14:54:23;;;;;;;6.68;6.07;;;;;;;-145.79;45.42;76459.56;5323371;28;20035;-73
2023/07/21 14:56:54;;;;;;;8.38;6.43;;;;;;;-145.79;45.60;76455.34;5315816;28;20379;-73
2023/07/21 14:59:26;;;;;;;8.80;6.00;;;;;;;-145.79;45.17;76453.22;5320128;28;20023;-73
2023/07/21 15:01:58;;;;;;;6.25;5.65;;;;;;;-145.79;43.47;76480.78;5314751;28;20035;-72
2023/07/21 15:04:29;;;;;;;6.13;5.53;;;;;;;-145.79;43.09;76495.59;5312980;28;20024;-73
2023/07/21 15:07:00;;;;;;;19.85;17.92;;;;;;;-145.79;43.12;76538.00;5312969;28;20438;-73
2023/07/21 15:09:32;;;;;;;8.63;6.70;;;;;;;-145.79;42.85;76550.69;5315082;28;20047;-71
2023/07/21 15:12:04;;;;;;;10.05;8.05;;;;;;;-145.79;42.90;76529.50;5320381;28;20148;-73
2023/07/21 15:14:35;;;;;;;6.60;6.00;;;;;;;-145.79;42.12;76527.38;5311192;28;20052;-71
2023/07/21 15:17:06;;;;;;;7.07;6.40;;;;;;;-145.79;41.59;76508.31;5320747;28;20077;-72
2023/07/21 15:19:38;;;;;;;5.57;5.05;;;;;;;-145.79;41.21;76482.88;5315415;28;20084;-73
2023/07/21 15:22:10;;;;;;;6.85;5.13;;;;;;;-145.79;40.21;76482.88;5315850;28;20375;-73
2023/07/21 15:24:42;;;;;;;5.38;4.88;;;;;;;-145.79;39.76;76497.72;5315593;28;20031;-72
2023/07/21 15:27:13;;;;;;;6.55;4.80;;;;;;;-145.79;39.56;76516.78;5315763;28;20072;-73
2023/07/21 15:29:44;;;;;;;5.53;4.88;;;;;;;-145.79;39.01;76506.19;5314442;28;20085;-74
2023/07/21 15:32:16;;;;;;;8.68;7.78;;;;;;;-145.79;38.92;76514.69;5311676;28;20092;-74
2023/07/21 15:34:47;;;;;;;6.53;5.93;;;;;;;-145.79;38.59;76538.00;5314997;28;20028;-73
2023/07/21 15:37:18;;;;;;;5.95;5.22;;;;;;;-145.79;39.42;76550.69;5320919;28;20111;-73
2023/07/21 15:39:50;;;;;;;6.10;5.50;;;;;;;-145.79;39.59;76516.78;5323154;28;20538;-75
2023/07/21 15:42:21;;;;;;;6.30;4.68;;;;;;;-145.79;38.23;76516.78;5314017;28;20055;-75
2023/07/21 15:44:53;;;;;;;5.95;4.45;;;;;;;-145.79;37.57;76501.97;5323649;28;20043;-73
2023/07/21 15:47:24;;;;;;;6.22;4.30;;;;;;;-145.79;37.90;76542.22;5320285;28;20015;-73
2023/07/21 15:49:56;;;;;;;6.72;4.75;;;;;;;-145.79;38.29;76542.22;5313020;28;20028;-75
2023/07/21 15:52:27;;;;;;;4.90;4.40;;;;;;;-145.79;37.98;76533.75;5327906;28;20050;-74
2023/07/21 15:54:59;;;;;;;4.90;4.40;;;;;;;-145.79;37.58;76538.00;5323884;28;20039;-74
2023/07/21 15:57:30;;;;;;;5.20;4.57;;;;;;;-145.79;38.19;76521.03;5327741;28;20019;-73
2023/07/21 16:00:10;;;;;;;5.70;5.18;;;;;;;-145.79;38.78;76521.03;5325831;28;20031;-74
2023/07/21 16:02:41;;;;;;;7.65;4.65;;;;;;;-145.79;37.92;76504.09;5326883;28;20030;-72
2023/07/21 16:05:18;;;;;;;5.30;4.80;;;;;;;-145.79;37.94;76508.31;5325381;28;20027;-73
2023/07/21 16:07:49;;;;;;;4.82;4.32;;;;;;;-145.79;37.51;76523.16;5324706;28;20019;-74
2023/07/21 16:10:21;;;;;;;5.03;4.53;;;;;;;-145.79;37.67;76512.56;5321621;28;20520;-74
2023/07/21 16:12:53;;;;;;;4.68;4.22;;;;;;;-145.79;37.52;76546.47;5323209;28;20148;-74
2023/07/21 16:15:25;;;;;;;5.18;4.68;;;;;;;-145.79;38.75;76525.28;5317824;28;20031;-73
2023/07/21 16:17:57;;;;;;;5.15;4.65;;;;;;;-145.79;38.96;76521.03;5325126;28;20906;-72
2023/07/21 16:20:28;;;;;;;5.00;4.43;;;;;;;-145.79;38.86;76521.03;5327030;28;20106;-71
2023/07/21 16:23:01;;;;;;;5.47;4.95;;;;;;;-145.79;38.22;76525.28;5321347;28;20048;-72
2023/07/21 16:25:32;;;;;;;4.80;4.30;;;;;;;-145.79;37.16;76544.34;5326390;28;20028;-72
2023/07/21 16:28:04;;;;;;;7.55;4.65;;;;;;;-145.79;38.07;76529.50;5322970;28;20034;-72
2023/07/21 16:30:38;;;;;;;4.72;4.30;;;;;;;-145.79;37.97;76533.75;5319508;28;20124;-70
2023/07/21 16:33:10;;;;;;;6.40;4.78;;;;;;;-145.79;37.62;76533.75;5318502;28;20031;-71
2023/07/21 16:35:41;;;;;;;4.90;4.40;;;;;;;-145.79;38.13;76512.56;5325353;28;20084;-73
2023/07/21 16:38:12;;;;;;;6.22;4.88;;;;;;;-145.79;38.02;76525.28;5320785;28;20019;-73
2023/07/21 16:40:44;;;;;;;5.93;4.75;;;;;;;-145.79;38.13;76527.38;5325387;28;20059;-73
2023/07/21 16:43:15;;;;;;;8.88;7.95;;;;;;;-145.79;38.02;76514.69;5327618;28;20034;-72
2023/07/21 16:45:47;;;;;;;13.05;5.03;;;;;;;-145.79;38.43;76540.09;5318620;28;20066;-73
2023/07/21 16:48:18;;;;;;;6.07;5.50;;;;;;;-145.79;38.08;76529.50;5319588;28;20016;-72
2023/07/21 16:50:51;;;;;;;5.15;4.75;;;;;;;-145.79;39.25;76565.53;5318970;28;20044;-72
2023/07/21 16:53:22;;;;;;;6.95;4.82;;;;;;;-145.79;40.13;76567.66;5325482;28;20032;-72
